sensor_id;sensor_type;location;lat;lon;timestamp;P1;durP1;ratioP1;P2;durP2;ratioP2
20271;SDS011;10295;49.812;9.866;2023-02-11T00:02:20;63.07;;;28.80;;
20271;SDS011;10295;49.812;9.866;2023-02-11T00:04:48;63.10;;;27.83;;
20271;SDS011;10295;49.812;9.866;2023-02-11T00:07:16;58.93;;;27.53;;
20271;SDS011;10295;49.812;9.866;2023-02-11T00:09:43;60.03;;;27.57;;
20271;SDS011;10295;49.812;9.866;2023-02-11T00:12:10;61.50;;;27.57;;
20271;SDS011;10295;49.812;9.866;2023-02-11T00:14:37;58.70;;;26.60;;
20271;SDS011;10295;49.812;9.866;2023-02-11T00:17:04;62.20;;;27.53;;
20271;SDS011;10295;49.812;9.866;2023-02-11T00:19:32;56.73;;;26.50;;
20271;SDS011;10295;49.812;9.866;2023-02-11T00:22:00;58.77;;;26.33;;
20271;SDS011;10295;49.812;9.866;2023-02-11T00:24:27;61.83;;;25.57;;
20271;SDS011;10295;49.812;9.866;2023-02-11T00:26:55;58.70;;;26.33;;
20271;SDS011;10295;49.812;9.866;2023-02-11T00:29:22;55.43;;;25.57;;
20271;SDS011;10295;49.812;9.866;2023-02-11T00:31:49;57.23;;;25.70;;
20271;SDS011;10295;49.812;9.866;2023-02-11T00:34:17;56.43;;;26.17;;
20271;SDS011;10295;49.812;9.866;2023-02-11T00:36:44;60.33;;;26.70;;
20271;SDS011;10295;49.812;9.866;2023-02-11T00:39:11;55.37;;;25.33;;
20271;SDS011;10295;49.812;9.866;2023-02-11T00:41:38;58.70;;;25.37;;
20271;SDS011;10295;49.812;9.866;2023-02-11T00:44:05;49.73;;;23.33;;
20271;SDS011;10295;49.812;9.866;2023-02-11T00:46:32;52.50;;;23.77;;
20271;SDS011;10295;49.812;9.866;2023-02-11T00:49:00;50.87;;;23.87;;
20271;SDS011;10295;49.812;9.866;2023-02-11T00:51:27;56.90;;;24.93;;
20271;SDS011;10295;49.812;9.866;2023-02-11T00:53:54;53.57;;;23.73;;
20271;SDS011;10295;49.812;9.866;2023-02-11T00:56:22;55.87;;;25.50;;
20271;SDS011;10295;49.812;9.866;2023-02-11T00:58:49;55.10;;;26.50;;
20271;SDS011;10295;49.812;9.866;2023-02-11T01:01:16;62.57;;;27.10;;
20271;SDS011;10295;49.812;9.866;2023-02-11T01:03:43;57.57;;;26.23;;
20271;SDS011;10295;49.812;9.866;2023-02-11T01:06:10;60.53;;;27.27;;
20271;SDS011;10295;49.812;9.866;2023-02-11T01:08:38;55.53;;;26.53;;
20271;SDS011;10295;49.812;9.866;2023-02-11T01:11:06;55.63;;;25.53;;
20271;SDS011;10295;49.812;9.866;2023-02-11T01:13:35;52.70;;;25.13;;
20271;SDS011;10295;49.812;9.866;2023-02-11T01:16:03;57.93;;;25.93;;
20271;SDS011;10295;49.812;9.866;2023-02-11T01:18:32;57.97;;;26.33;;
20271;SDS011;10295;49.812;9.866;2023-02-11T01:21:00;54.53;;;24.80;;
20271;SDS011;10295;49.812;9.866;2023-02-11T01:23:27;52.73;;;24.70;;
20271;SDS011;10295;49.812;9.866;2023-02-11T01:25:54;55.03;;;23.67;;
20271;SDS011;10295;49.812;9.866;2023-02-11T01:28:22;51.77;;;22.63;;
20271;SDS011;10295;49.812;9.866;2023-02-11T01:30:50;53.13;;;23.63;;
20271;SDS011;10295;49.812;9.866;2023-02-11T01:33:18;51.63;;;23.20;;
20271;SDS011;10295;49.812;9.866;2023-02-11T01:35:45;53.07;;;23.33;;
20271;SDS011;10295;49.812;9.866;2023-02-11T01:38:14;50.77;;;23.03;;
20271;SDS011;10295;49.812;9.866;2023-02-11T01:40:57;52.13;;;23.40;;
20271;SDS011;10295;49.812;9.866;2023-02-11T01:43:26;51.80;;;23.13;;
20271;SDS011;10295;49.812;9.866;2023-02-11T01:45:58;47.03;;;20.70;;
20271;SDS011;10295;49.812;9.866;2023-02-11T01:48:27;53.90;;;22.83;;
20271;SDS011;10295;49.812;9.866;2023-02-11T01:51:00;47.40;;;22.60;;
20271;SDS011;10295;49.812;9.866;2023-02-11T01:53:29;45.67;;;21.33;;
20271;SDS011;10295;49.812;9.866;2023-02-11T01:56:16;48.03;;;20.63;;
20271;SDS011;10295;49.812;9.866;2023-02-11T01:59:05;44.43;;;19.27;;
20271;SDS011;10295;49.812;9.866;2023-02-11T02:01:33;45.87;;;20.00;;
20271;SDS011;10295;49.812;9.866;2023-02-11T02:04:02;43.17;;;20.27;;
20271;SDS011;10295;49.812;9.866;2023-02-11T02:06:36;47.57;;;19.93;;
20271;SDS011;10295;49.812;9.866;2023-02-11T02:09:25;47.90;;;20.67;;
20271;SDS011;10295;49.812;9.866;2023-02-11T02:11:54;45.47;;;19.90;;
20271;SDS011;10295;49.812;9.866;2023-02-11T02:14:21;42.67;;;19.17;;
20271;SDS011;10295;49.812;9.866;2023-02-11T02:16:48;45.47;;;20.17;;
20271;SDS011;10295;49.812;9.866;2023-02-11T02:19:28;47.50;;;19.53;;
20271;SDS011;10295;49.812;9.866;2023-02-11T02:27:39;43.07;;;19.63;;
20271;SDS011;10295;49.812;9.866;2023-02-11T02:30:10;42.67;;;18.70;;
20271;SDS011;10295;49.812;9.866;2023-02-11T02:40:09;41.60;;;18.97;;
20271;SDS011;10295;49.812;9.866;2023-02-11T02:42:37;45.10;;;19.23;;
20271;SDS011;10295;49.812;9.866;2023-02-11T02:45:05;44.03;;;19.50;;
20271;SDS011;10295;49.812;9.866;2023-02-11T02:47:33;45.47;;;20.20;;
20271;SDS011;10295;49.812;9.866;2023-02-11T02:50:00;48.80;;;20.13;;
20271;SDS011;10295;49.812;9.866;2023-02-11T02:52:47;42.77;;;18.47;;
20271;SDS011;10295;49.812;9.866;2023-02-11T03:03:04;43.80;;;19.53;;
20271;SDS011;10295;49.812;9.866;2023-02-11T03:08:19;42.47;;;19.97;;
20271;SDS011;10295;49.812;9.866;2023-02-11T03:10:49;47.93;;;20.63;;
20271;SDS011;10295;49.812;9.866;2023-02-11T03:13:17;50.30;;;22.30;;
20271;SDS011;10295;49.812;9.866;2023-02-11T03:15:47;52.27;;;23.63;;
20271;SDS011;10295;49.812;9.866;2023-02-11T03:18:16;51.80;;;23.50;;
20271;SDS011;10295;49.812;9.866;2023-02-11T03:20:45;56.63;;;22.87;;
20271;SDS011;10295;49.812;9.866;2023-02-11T03:25:44;54.37;;;22.47;;
20271;SDS011;10295;49.812;9.866;2023-02-11T03:28:21;56.13;;;24.50;;
20271;SDS011;10295;49.812;9.866;2023-02-11T03:30:56;49.73;;;22.27;;
20271;SDS011;10295;49.812;9.866;2023-02-11T03:33:26;49.43;;;21.27;;
20271;SDS011;10295;49.812;9.866;2023-02-11T03:35:55;54.13;;;23.60;;
20271;SDS011;10295;49.812;9.866;2023-02-11T03:38:25;54.00;;;23.50;;
20271;SDS011;10295;49.812;9.866;2023-02-11T03:40:54;55.40;;;23.77;;
20271;SDS011;10295;49.812;9.866;2023-02-11T03:43:26;58.73;;;24.07;;
20271;SDS011;10295;49.812;9.866;2023-02-11T03:45:54;54.93;;;23.50;;
20271;SDS011;10295;49.812;9.866;2023-02-11T03:48:32;51.43;;;22.50;;
20271;SDS011;10295;49.812;9.866;2023-02-11T03:51:01;49.27;;;22.40;;
20271;SDS011;10295;49.812;9.866;2023-02-11T03:53:29;51.70;;;23.50;;
20271;SDS011;10295;49.812;9.866;2023-02-11T03:55:57;50.07;;;21.83;;
20271;SDS011;10295;49.812;9.866;2023-02-11T03:58:25;46.37;;;20.77;;
20271;SDS011;10295;49.812;9.866;2023-02-11T04:00:53;53.37;;;21.60;;
20271;SDS011;10295;49.812;9.866;2023-02-11T04:03:20;46.97;;;20.43;;
20271;SDS011;10295;49.812;9.866;2023-02-11T04:05:47;42.60;;;18.93;;
20271;SDS011;10295;49.812;9.866;2023-02-11T04:08:15;41.53;;;18.60;;
20271;SDS011;10295;49.812;9.866;2023-02-11T04:10:42;43.30;;;19.53;;
20271;SDS011;10295;49.812;9.866;2023-02-11T04:13:09;42.57;;;19.83;;
20271;SDS011;10295;49.812;9.866;2023-02-11T04:15:36;39.93;;;18.20;;
20271;SDS011;10295;49.812;9.866;2023-02-11T04:18:03;41.93;;;17.87;;
20271;SDS011;10295;49.812;9.866;2023-02-11T04:20:31;44.87;;;19.63;;
20271;SDS011;10295;49.812;9.866;2023-02-11T04:22:58;37.63;;;15.80;;
20271;SDS011;10295;49.812;9.866;2023-02-11T04:25:25;41.57;;;18.63;;
20271;SDS011;10295;49.812;9.866;2023-02-11T04:27:52;44.23;;;20.07;;
20271;SDS011;10295;49.812;9.866;2023-02-11T04:30:19;47.93;;;21.33;;
20271;SDS011;10295;49.812;9.866;2023-02-11T04:32:47;43.47;;;19.13;;
20271;SDS011;10295;49.812;9.866;2023-02-11T04:35:14;45.37;;;19.03;;
20271;SDS011;10295;49.812;9.866;2023-02-11T04:37:41;44.70;;;19.63;;
20271;SDS011;10295;49.812;9.866;2023-02-11T04:40:08;42.43;;;19.70;;
20271;SDS011;10295;49.812;9.866;2023-02-11T04:42:35;42.80;;;19.63;;
20271;SDS011;10295;49.812;9.866;2023-02-11T04:45:03;44.13;;;19.03;;
20271;SDS011;10295;49.812;9.866;2023-02-11T04:47:30;45.27;;;20.10;;
20271;SDS011;10295;49.812;9.866;2023-02-11T04:49:57;45.73;;;20.30;;
20271;SDS011;10295;49.812;9.866;2023-02-11T04:52:24;42.47;;;19.13;;
20271;SDS011;10295;49.812;9.866;2023-02-11T04:54:51;46.27;;;20.70;;
20271;SDS011;10295;49.812;9.866;2023-02-11T04:57:18;48.43;;;20.60;;
20271;SDS011;10295;49.812;9.866;2023-02-11T04:59:45;45.83;;;20.30;;
20271;SDS011;10295;49.812;9.866;2023-02-11T05:02:14;45.77;;;20.90;;
20271;SDS011;10295;49.812;9.866;2023-02-11T05:04:41;47.63;;;19.70;;
20271;SDS011;10295;49.812;9.866;2023-02-11T05:07:08;42.87;;;19.47;;
20271;SDS011;10295;49.812;9.866;2023-02-11T05:09:35;42.53;;;17.73;;
20271;SDS011;10295;49.812;9.866;2023-02-11T05:12:02;43.47;;;18.20;;
20271;SDS011;10295;49.812;9.866;2023-02-11T05:14:29;41.50;;;18.20;;
20271;SDS011;10295;49.812;9.866;2023-02-11T05:16:57;41.40;;;19.03;;
20271;SDS011;10295;49.812;9.866;2023-02-11T05:19:24;42.47;;;18.37;;
20271;SDS011;10295;49.812;9.866;2023-02-11T05:21:52;45.07;;;19.40;;
20271;SDS011;10295;49.812;9.866;2023-02-11T05:24:29;48.00;;;20.70;;
20271;SDS011;10295;49.812;9.866;2023-02-11T05:26:56;46.17;;;21.50;;
20271;SDS011;10295;49.812;9.866;2023-02-11T05:29:23;45.57;;;20.77;;
20271;SDS011;10295;49.812;9.866;2023-02-11T05:31:50;46.30;;;19.57;;
20271;SDS011;10295;49.812;9.866;2023-02-11T05:34:17;51.97;;;20.83;;
20271;SDS011;10295;49.812;9.866;2023-02-11T05:36:44;43.90;;;19.80;;
20271;SDS011;10295;49.812;9.866;2023-02-11T05:39:12;43.47;;;19.97;;
20271;SDS011;10295;49.812;9.866;2023-02-11T05:41:39;47.40;;;21.27;;
20271;SDS011;10295;49.812;9.866;2023-02-11T05:44:06;42.97;;;20.27;;
20271;SDS011;10295;49.812;9.866;2023-02-11T05:46:33;46.20;;;21.33;;
20271;SDS011;10295;49.812;9.866;2023-02-11T05:49:00;45.90;;;20.90;;
20271;SDS011;10295;49.812;9.866;2023-02-11T05:51:27;45.20;;;21.30;;
20271;SDS011;10295;49.812;9.866;2023-02-11T05:53:54;47.20;;;21.23;;
20271;SDS011;10295;49.812;9.866;2023-02-11T05:56:22;46.00;;;20.87;;
20271;SDS011;10295;49.812;9.866;2023-02-11T05:58:49;45.60;;;19.83;;
20271;SDS011;10295;49.812;9.866;2023-02-11T06:01:16;47.37;;;21.03;;
20271;SDS011;10295;49.812;9.866;2023-02-11T06:03:43;44.70;;;19.63;;
20271;SDS011;10295;49.812;9.866;2023-02-11T06:06:11;44.87;;;18.97;;
20271;SDS011;10295;49.812;9.866;2023-02-11T06:08:38;45.90;;;20.83;;
20271;SDS011;10295;49.812;9.866;2023-02-11T06:11:05;45.43;;;21.30;;
20271;SDS011;10295;49.812;9.866;2023-02-11T06:13:32;49.33;;;22.53;;
20271;SDS011;10295;49.812;9.866;2023-02-11T06:16:00;44.50;;;20.70;;
20271;SDS011;10295;49.812;9.866;2023-02-11T06:18:28;48.90;;;21.03;;
20271;SDS011;10295;49.812;9.866;2023-02-11T06:20:55;45.60;;;20.93;;
20271;SDS011;10295;49.812;9.866;2023-02-11T06:23:22;51.90;;;22.70;;
20271;SDS011;10295;49.812;9.866;2023-02-11T06:25:50;54.87;;;23.83;;
20271;SDS011;10295;49.812;9.866;2023-02-11T06:28:17;49.57;;;22.30;;
20271;SDS011;10295;49.812;9.866;2023-02-11T06:30:45;48.20;;;20.80;;
20271;SDS011;10295;49.812;9.866;2023-02-11T06:33:12;54.30;;;23.57;;
20271;SDS011;10295;49.812;9.866;2023-02-11T06:35:39;55.83;;;23.87;;
20271;SDS011;10295;49.812;9.866;2023-02-11T06:38:06;50.27;;;23.03;;
20271;SDS011;10295;49.812;9.866;2023-02-11T06:40:33;51.83;;;23.37;;
20271;SDS011;10295;49.812;9.866;2023-02-11T06:43:00;53.40;;;23.20;;
20271;SDS011;10295;49.812;9.866;2023-02-11T06:45:28;55.10;;;24.00;;
20271;SDS011;10295;49.812;9.866;2023-02-11T06:47:55;56.43;;;25.00;;
20271;SDS011;10295;49.812;9.866;2023-02-11T06:50:22;55.47;;;25.20;;
20271;SDS011;10295;49.812;9.866;2023-02-11T06:52:49;57.33;;;24.47;;
20271;SDS011;10295;49.812;9.866;2023-02-11T06:55:16;49.83;;;24.83;;
20271;SDS011;10295;49.812;9.866;2023-02-11T06:57:43;57.03;;;25.27;;
20271;SDS011;10295;49.812;9.866;2023-02-11T07:00:11;53.43;;;22.97;;
20271;SDS011;10295;49.812;9.866;2023-02-11T07:02:38;56.47;;;25.30;;
20271;SDS011;10295;49.812;9.866;2023-02-11T07:05:06;58.17;;;24.53;;
20271;SDS011;10295;49.812;9.866;2023-02-11T07:07:33;53.57;;;24.77;;
20271;SDS011;10295;49.812;9.866;2023-02-11T07:10:01;55.53;;;24.23;;
20271;SDS011;10295;49.812;9.866;2023-02-11T07:12:31;54.60;;;24.97;;
20271;SDS011;10295;49.812;9.866;2023-02-11T07:14:58;53.10;;;24.73;;
20271;SDS011;10295;49.812;9.866;2023-02-11T07:17:25;53.53;;;24.47;;
20271;SDS011;10295;49.812;9.866;2023-02-11T07:19:52;52.13;;;24.07;;
20271;SDS011;10295;49.812;9.866;2023-02-11T07:22:20;53.23;;;23.67;;
20271;SDS011;10295;49.812;9.866;2023-02-11T07:24:47;57.27;;;24.73;;
20271;SDS011;10295;49.812;9.866;2023-02-11T07:27:14;51.37;;;23.77;;
20271;SDS011;10295;49.812;9.866;2023-02-11T07:29:41;53.40;;;23.63;;
20271;SDS011;10295;49.812;9.866;2023-02-11T07:32:08;52.10;;;23.53;;
20271;SDS011;10295;49.812;9.866;2023-02-11T07:34:36;51.70;;;23.43;;
20271;SDS011;10295;49.812;9.866;2023-02-11T07:37:03;49.13;;;23.17;;
20271;SDS011;10295;49.812;9.866;2023-02-11T07:39:30;50.73;;;23.83;;
20271;SDS011;10295;49.812;9.866;2023-02-11T07:41:57;49.00;;;22.30;;
20271;SDS011;10295;49.812;9.866;2023-02-11T07:44:25;51.10;;;23.43;;
20271;SDS011;10295;49.812;9.866;2023-02-11T07:46:52;50.50;;;21.90;;
20271;SDS011;10295;49.812;9.866;2023-02-11T07:49:19;51.40;;;23.63;;
20271;SDS011;10295;49.812;9.866;2023-02-11T07:51:46;47.33;;;21.57;;
20271;SDS011;10295;49.812;9.866;2023-02-11T07:54:16;48.40;;;22.80;;
20271;SDS011;10295;49.812;9.866;2023-02-11T07:56:43;49.77;;;23.13;;
20271;SDS011;10295;49.812;9.866;2023-02-11T07:59:10;50.20;;;23.20;;
20271;SDS011;10295;49.812;9.866;2023-02-11T08:01:38;50.10;;;24.37;;
20271;SDS011;10295;49.812;9.866;2023-02-11T08:04:05;51.17;;;22.17;;
20271;SDS011;10295;49.812;9.866;2023-02-11T08:06:32;53.83;;;23.20;;
20271;SDS011;10295;49.812;9.866;2023-02-11T08:09:04;46.53;;;22.37;;
20271;SDS011;10295;49.812;9.866;2023-02-11T08:11:32;47.53;;;21.17;;
20271;SDS011;10295;49.812;9.866;2023-02-11T08:13:59;49.20;;;22.93;;
20271;SDS011;10295;49.812;9.866;2023-02-11T08:16:28;46.67;;;22.30;;
20271;SDS011;10295;49.812;9.866;2023-02-11T08:18:57;44.70;;;21.97;;
20271;SDS011;10295;49.812;9.866;2023-02-11T08:21:24;49.80;;;22.83;;
20271;SDS011;10295;49.812;9.866;2023-02-11T08:23:52;43.43;;;21.70;;
20271;SDS011;10295;49.812;9.866;2023-02-11T08:26:20;42.70;;;21.50;;
20271;SDS011;10295;49.812;9.866;2023-02-11T08:28:49;43.90;;;20.57;;
20271;SDS011;10295;49.812;9.866;2023-02-11T08:31:20;43.57;;;21.97;;
20271;SDS011;10295;49.812;9.866;2023-02-11T08:33:48;46.30;;;22.40;;
20271;SDS011;10295;49.812;9.866;2023-02-11T08:36:22;46.03;;;21.80;;
20271;SDS011;10295;49.812;9.866;2023-02-11T08:38:49;51.00;;;21.63;;
20271;SDS011;10295;49.812;9.866;2023-02-11T08:41:17;42.93;;;20.67;;
20271;SDS011;10295;49.812;9.866;2023-02-11T08:43:44;43.43;;;21.60;;
20271;SDS011;10295;49.812;9.866;2023-02-11T08:46:12;43.20;;;20.97;;
20271;SDS011;10295;49.812;9.866;2023-02-11T08:48:40;39.80;;;20.60;;
20271;SDS011;10295;49.812;9.866;2023-02-11T08:51:09;41.30;;;20.20;;
20271;SDS011;10295;49.812;9.866;2023-02-11T08:53:36;41.90;;;21.60;;
20271;SDS011;10295;49.812;9.866;2023-02-11T08:56:03;45.60;;;21.47;;
20271;SDS011;10295;49.812;9.866;2023-02-11T08:58:31;43.10;;;21.33;;
20271;SDS011;10295;49.812;9.866;2023-02-11T09:00:58;44.67;;;20.77;;
20271;SDS011;10295;49.812;9.866;2023-02-11T09:03:26;42.03;;;21.17;;
20271;SDS011;10295;49.812;9.866;2023-02-11T09:05:53;45.20;;;21.00;;
20271;SDS011;10295;49.812;9.866;2023-02-11T09:08:22;45.37;;;20.70;;
20271;SDS011;10295;49.812;9.866;2023-02-11T09:10:49;44.93;;;21.50;;
20271;SDS011;10295;49.812;9.866;2023-02-11T09:13:16;38.50;;;19.53;;
20271;SDS011;10295;49.812;9.866;2023-02-11T09:15:44;41.27;;;20.80;;
20271;SDS011;10295;49.812;9.866;2023-02-11T09:18:12;46.10;;;21.10;;
20271;SDS011;10295;49.812;9.866;2023-02-11T09:20:39;41.83;;;20.47;;
20271;SDS011;10295;49.812;9.866;2023-02-11T09:23:06;40.00;;;19.77;;
20271;SDS011;10295;49.812;9.866;2023-02-11T09:25:33;38.50;;;19.93;;
20271;SDS011;10295;49.812;9.866;2023-02-11T09:28:00;41.03;;;19.07;;
20271;SDS011;10295;49.812;9.866;2023-02-11T09:30:28;37.53;;;19.57;;
20271;SDS011;10295;49.812;9.866;2023-02-11T09:32:55;39.37;;;19.83;;
20271;SDS011;10295;49.812;9.866;2023-02-11T09:35:22;41.20;;;20.13;;
20271;SDS011;10295;49.812;9.866;2023-02-11T09:37:49;39.13;;;19.53;;
20271;SDS011;10295;49.812;9.866;2023-02-11T09:40:16;40.00;;;19.27;;
20271;SDS011;10295;49.812;9.866;2023-02-11T09:42:46;37.27;;;17.80;;
20271;SDS011;10295;49.812;9.866;2023-02-11T09:45:19;35.07;;;17.63;;
20271;SDS011;10295;49.812;9.866;2023-02-11T09:47:49;36.97;;;17.97;;
20271;SDS011;10295;49.812;9.866;2023-02-11T09:50:38;36.77;;;17.73;;
20271;SDS011;10295;49.812;9.866;2023-02-11T09:53:40;34.00;;;17.90;;
20271;SDS011;10295;49.812;9.866;2023-02-11T09:56:01;34.93;;;17.77;;
20271;SDS011;10295;49.812;9.866;2023-02-11T09:58:33;33.23;;;16.87;;
20271;SDS011;10295;49.812;9.866;2023-02-11T10:09:00;36.90;;;18.27;;
20271;SDS011;10295;49.812;9.866;2023-02-11T10:17:06;36.43;;;16.97;;
20271;SDS011;10295;49.812;9.866;2023-02-11T10:22:34;36.43;;;17.40;;
20271;SDS011;10295;49.812;9.866;2023-02-11T10:27:49;36.90;;;17.90;;
20271;SDS011;10295;49.812;9.866;2023-02-11T10:32:48;34.33;;;16.63;;
20271;SDS011;10295;49.812;9.866;2023-02-11T10:35:18;33.23;;;17.80;;
20271;SDS011;10295;49.812;9.866;2023-02-11T10:37:46;34.10;;;17.33;;
20271;SDS011;10295;49.812;9.866;2023-02-11T10:40:32;33.57;;;17.43;;
20271;SDS011;10295;49.812;9.866;2023-02-11T10:43:03;38.37;;;17.53;;
20271;SDS011;10295;49.812;9.866;2023-02-11T10:47:59;38.03;;;18.60;;
20271;SDS011;10295;49.812;9.866;2023-02-11T10:50:27;37.40;;;18.27;;
20271;SDS011;10295;49.812;9.866;2023-02-11T10:53:09;37.20;;;18.93;;
20271;SDS011;10295;49.812;9.866;2023-02-11T10:55:37;37.00;;;17.47;;
20271;SDS011;10295;49.812;9.866;2023-02-11T10:58:04;41.17;;;18.60;;
20271;SDS011;10295;49.812;9.866;2023-02-11T11:00:33;36.33;;;18.97;;
20271;SDS011;10295;49.812;9.866;2023-02-11T11:03:06;36.37;;;17.33;;
20271;SDS011;10295;49.812;9.866;2023-02-11T11:08:47;35.50;;;18.23;;
20271;SDS011;10295;49.812;9.866;2023-02-11T11:11:16;38.13;;;19.23;;
20271;SDS011;10295;49.812;9.866;2023-02-11T11:18:41;42.33;;;19.47;;
20271;SDS011;10295;49.812;9.866;2023-02-11T11:21:13;36.97;;;18.37;;
20271;SDS011;10295;49.812;9.866;2023-02-11T11:23:45;37.47;;;18.73;;
20271;SDS011;10295;49.812;9.866;2023-02-11T11:26:13;39.70;;;18.70;;
20271;SDS011;10295;49.812;9.866;2023-02-11T11:28:42;38.17;;;19.60;;
20271;SDS011;10295;49.812;9.866;2023-02-11T11:31:18;38.30;;;19.57;;
20271;SDS011;10295;49.812;9.866;2023-02-11T11:33:46;39.33;;;18.87;;
20271;SDS011;10295;49.812;9.866;2023-02-11T11:36:21;38.27;;;18.23;;
20271;SDS011;10295;49.812;9.866;2023-02-11T11:38:56;38.17;;;19.30;;
20271;SDS011;10295;49.812;9.866;2023-02-11T11:41:25;39.20;;;18.60;;
20271;SDS011;10295;49.812;9.866;2023-02-11T11:43:57;40.67;;;19.70;;
20271;SDS011;10295;49.812;9.866;2023-02-11T11:48:57;39.40;;;19.10;;
20271;SDS011;10295;49.812;9.866;2023-02-11T11:51:24;37.23;;;19.73;;
20271;SDS011;10295;49.812;9.866;2023-02-11T11:54:02;38.37;;;19.30;;
20271;SDS011;10295;49.812;9.866;2023-02-11T11:56:33;40.97;;;19.27;;
20271;SDS011;10295;49.812;9.866;2023-02-11T11:59:09;39.33;;;18.73;;
20271;SDS011;10295;49.812;9.866;2023-02-11T12:01:50;37.77;;;19.40;;
20271;SDS011;10295;49.812;9.866;2023-02-11T12:07:14;36.77;;;19.10;;
20271;SDS011;10295;49.812;9.866;2023-02-11T12:40:59;36.77;;;17.93;;
20271;SDS011;10295;49.812;9.866;2023-02-11T12:43:37;40.90;;;19.07;;
20271;SDS011;10295;49.812;9.866;2023-02-11T12:46:26;42.13;;;18.77;;
20271;SDS011;10295;49.812;9.866;2023-02-11T12:56:37;44.90;;;21.33;;
20271;SDS011;10295;49.812;9.866;2023-02-11T12:59:10;44.80;;;20.33;;
20271;SDS011;10295;49.812;9.866;2023-02-11T13:01:39;40.27;;;20.20;;
20271;SDS011;10295;49.812;9.866;2023-02-11T13:04:12;39.87;;;20.03;;
20271;SDS011;10295;49.812;9.866;2023-02-11T13:06:43;40.83;;;20.13;;
20271;SDS011;10295;49.812;9.866;2023-02-11T13:09:25;42.10;;;19.67;;
20271;SDS011;10295;49.812;9.866;2023-02-11T13:11:54;38.80;;;19.23;;
20271;SDS011;10295;49.812;9.866;2023-02-11T13:16:49;41.90;;;18.77;;
20271;SDS011;10295;49.812;9.866;2023-02-11T13:19:39;38.07;;;18.90;;
20271;SDS011;10295;49.812;9.866;2023-02-11T13:22:06;36.80;;;18.57;;
20271;SDS011;10295;49.812;9.866;2023-02-11T13:24:50;37.97;;;18.07;;
20271;SDS011;10295;49.812;9.866;2023-02-11T13:37:55;37.50;;;18.83;;
20271;SDS011;10295;49.812;9.866;2023-02-11T13:40:27;39.33;;;18.67;;
20271;SDS011;10295;49.812;9.866;2023-02-11T13:42:56;38.60;;;18.63;;
20271;SDS011;10295;49.812;9.866;2023-02-11T13:45:43;43.27;;;19.07;;
20271;SDS011;10295;49.812;9.866;2023-02-11T13:48:14;40.17;;;18.10;;
20271;SDS011;10295;49.812;9.866;2023-02-11T13:50:47;41.10;;;19.43;;
20271;SDS011;10295;49.812;9.866;2023-02-11T13:53:15;40.73;;;19.37;;
20271;SDS011;10295;49.812;9.866;2023-02-11T13:55:48;36.90;;;18.00;;
20271;SDS011;10295;49.812;9.866;2023-02-11T13:58:18;35.83;;;15.87;;
20271;SDS011;10295;49.812;9.866;2023-02-11T14:00:57;32.43;;;15.93;;
20271;SDS011;10295;49.812;9.866;2023-02-11T14:03:28;33.00;;;16.47;;
20271;SDS011;10295;49.812;9.866;2023-02-11T14:06:18;36.47;;;17.77;;
20271;SDS011;10295;49.812;9.866;2023-02-11T14:11:48;33.07;;;17.30;;
20271;SDS011;10295;49.812;9.866;2023-02-11T14:14:22;36.40;;;17.30;;
20271;SDS011;10295;49.812;9.866;2023-02-11T14:19:45;36.53;;;18.07;;
20271;SDS011;10295;49.812;9.866;2023-02-11T14:22:13;35.63;;;17.43;;
20271;SDS011;10295;49.812;9.866;2023-02-11T14:24:48;32.93;;;16.90;;
20271;SDS011;10295;49.812;9.866;2023-02-11T14:29:57;37.03;;;16.63;;
20271;SDS011;10295;49.812;9.866;2023-02-11T14:42:49;37.57;;;17.27;;
20271;SDS011;10295;49.812;9.866;2023-02-11T14:45:18;34.50;;;17.93;;
20271;SDS011;10295;49.812;9.866;2023-02-11T14:50:26;38.70;;;17.50;;
20271;SDS011;10295;49.812;9.866;2023-02-11T14:52:54;36.23;;;17.60;;
20271;SDS011;10295;49.812;9.866;2023-02-11T14:55:29;36.63;;;17.13;;
20271;SDS011;10295;49.812;9.866;2023-02-11T15:00:33;36.10;;;17.23;;
20271;SDS011;10295;49.812;9.866;2023-02-11T15:03:00;32.57;;;16.67;;
20271;SDS011;10295;49.812;9.866;2023-02-11T15:05:27;41.77;;;17.80;;
20271;SDS011;10295;49.812;9.866;2023-02-11T15:07:56;40.07;;;17.87;;
20271;SDS011;10295;49.812;9.866;2023-02-11T15:10:45;39.10;;;18.10;;
20271;SDS011;10295;49.812;9.866;2023-02-11T15:13:15;42.20;;;18.97;;
20271;SDS011;10295;49.812;9.866;2023-02-11T15:15:44;41.23;;;18.13;;
20271;SDS011;10295;49.812;9.866;2023-02-11T15:18:16;42.50;;;19.80;;
20271;SDS011;10295;49.812;9.866;2023-02-11T15:20:47;40.40;;;19.10;;
20271;SDS011;10295;49.812;9.866;2023-02-11T15:23:22;40.80;;;18.77;;
20271;SDS011;10295;49.812;9.866;2023-02-11T15:25:50;44.63;;;18.53;;
20271;SDS011;10295;49.812;9.866;2023-02-11T15:28:25;42.23;;;18.63;;
20271;SDS011;10295;49.812;9.866;2023-02-11T15:30:58;34.80;;;18.03;;
20271;SDS011;10295;49.812;9.866;2023-02-11T15:33:25;39.87;;;19.00;;
20271;SDS011;10295;49.812;9.866;2023-02-11T15:35:55;43.77;;;19.60;;
20271;SDS011;10295;49.812;9.866;2023-02-11T15:38:22;37.60;;;19.43;;
20271;SDS011;10295;49.812;9.866;2023-02-11T15:40:51;48.87;;;19.60;;
20271;SDS011;10295;49.812;9.866;2023-02-11T15:43:18;38.17;;;18.30;;
20271;SDS011;10295;49.812;9.866;2023-02-11T15:45:56;39.77;;;18.53;;
20271;SDS011;10295;49.812;9.866;2023-02-11T15:48:34;39.87;;;17.93;;
20271;SDS011;10295;49.812;9.866;2023-02-11T15:53:48;53.50;;;23.97;;
20271;SDS011;10295;49.812;9.866;2023-02-11T15:56:19;47.30;;;21.93;;
20271;SDS011;10295;49.812;9.866;2023-02-11T15:58:50;47.33;;;21.53;;
20271;SDS011;10295;49.812;9.866;2023-02-11T16:01:18;42.37;;;20.23;;
20271;SDS011;10295;49.812;9.866;2023-02-11T16:03:48;43.10;;;20.03;;
20271;SDS011;10295;49.812;9.866;2023-02-11T16:06:26;42.33;;;20.23;;
20271;SDS011;10295;49.812;9.866;2023-02-11T16:08:55;42.73;;;20.17;;
20271;SDS011;10295;49.812;9.866;2023-02-11T16:11:33;47.27;;;21.67;;
20271;SDS011;10295;49.812;9.866;2023-02-11T16:14:01;45.43;;;20.97;;
20271;SDS011;10295;49.812;9.866;2023-02-11T16:16:32;42.07;;;20.00;;
20271;SDS011;10295;49.812;9.866;2023-02-11T16:19:00;40.13;;;19.47;;
20271;SDS011;10295;49.812;9.866;2023-02-11T16:21:35;40.63;;;19.57;;
20271;SDS011;10295;49.812;9.866;2023-02-11T16:24:05;42.27;;;19.30;;
20271;SDS011;10295;49.812;9.866;2023-02-11T16:26:33;44.23;;;20.80;;
20271;SDS011;10295;49.812;9.866;2023-02-11T16:29:11;40.07;;;20.03;;
20271;SDS011;10295;49.812;9.866;2023-02-11T16:31:40;41.17;;;19.33;;
20271;SDS011;10295;49.812;9.866;2023-02-11T16:34:23;45.93;;;20.53;;
20271;SDS011;10295;49.812;9.866;2023-02-11T16:36:51;42.77;;;20.50;;
20271;SDS011;10295;49.812;9.866;2023-02-11T16:39:19;46.93;;;20.97;;
20271;SDS011;10295;49.812;9.866;2023-02-11T16:41:50;45.90;;;21.70;;
20271;SDS011;10295;49.812;9.866;2023-02-11T16:44:17;44.37;;;21.03;;
20271;SDS011;10295;49.812;9.866;2023-02-11T16:46:44;45.70;;;22.03;;
20271;SDS011;10295;49.812;9.866;2023-02-11T16:49:31;48.63;;;21.50;;
20271;SDS011;10295;49.812;9.866;2023-02-11T16:52:00;45.10;;;20.93;;
20271;SDS011;10295;49.812;9.866;2023-02-11T16:54:28;44.07;;;22.53;;
20271;SDS011;10295;49.812;9.866;2023-02-11T16:56:55;46.80;;;22.40;;
20271;SDS011;10295;49.812;9.866;2023-02-11T16:59:23;48.90;;;22.90;;